createdAt,value
2019-02-18T00:01:45.997Z,20.35
2019-02-18T00:03:52.234Z,19.95
2019-02-18T00:05:58.600Z,20.10
2019-02-18T00:08:04.933Z,19.62
2019-02-18T00:10:11.097Z,19.52
2019-02-18T00:12:17.351Z,21.68
2019-02-18T00:14:23.751Z,19.82
2019-02-18T00:16:29.987Z,20.80
2019-02-18T00:18:36.300Z,20.20
2019-02-18T00:20:42.565Z,20.25
2019-02-18T00:22:48.802Z,20.60
2019-02-18T00:24:55.183Z,20.32
2019-02-18T00:27:01.514Z,21.00
2019-02-18T00:29:07.678Z,22.02
2019-02-18T00:31:13.900Z,21.52
2019-02-18T00:33:20.310Z,22.27
2019-02-18T00:35:26.579Z,22.60
2019-02-18T00:37:32.805Z,22.37
2019-02-18T00:39:39.195Z,22.00
2019-02-18T00:41:45.495Z,21.73
2019-02-18T00:43:52.805Z,21.87
2019-02-18T00:45:59.131Z,21.40
2019-02-18T00:48:05.505Z,22.00
2019-02-18T00:50:12.073Z,22.73
2019-02-18T00:52:18.393Z,23.42
2019-02-18T00:54:24.878Z,22.05
2019-02-18T00:56:31.105Z,23.57
2019-02-18T00:58:37.299Z,23.38
2019-02-18T01:00:43.535Z,22.07
2019-02-18T01:02:49.828Z,24.23
2019-02-18T01:04:56.167Z,23.30
2019-02-18T01:07:02.643Z,23.30
2019-02-18T01:09:09.069Z,22.98
2019-02-18T01:11:15.343Z,24.07
2019-02-18T01:13:21.647Z,23.05
2019-02-18T01:15:27.960Z,23.12
2019-02-18T01:17:34.305Z,22.62
2019-02-18T01:19:40.469Z,21.55
2019-02-18T01:21:46.709Z,21.87
2019-02-18T01:23:52.975Z,24.12
2019-02-18T01:25:59.137Z,21.35
2019-02-18T01:28:05.295Z,23.05
2019-02-18T01:30:16.297Z,23.15
2019-02-18T01:32:22.677Z,22.17
2019-02-18T01:34:28.832Z,21.62
2019-02-18T01:36:35.019Z,24.47
2019-02-18T01:38:41.268Z,22.37
2019-02-18T01:40:47.441Z,22.87
2019-02-18T01:42:53.632Z,22.37
2019-02-18T01:44:59.892Z,22.48
2019-02-18T01:47:06.169Z,25.17
2019-02-18T01:49:12.505Z,23.20
2019-02-18T01:51:18.737Z,23.67
2019-02-18T01:53:24.902Z,22.98
2019-02-18T01:55:31.176Z,25.75
2019-02-18T01:57:37.560Z,23.12
2019-02-18T01:59:43.722Z,24.40
2019-02-18T02:01:49.991Z,22.87
2019-02-18T02:03:56.211Z,23.85
2019-02-18T02:06:02.389Z,24.72
2019-02-18T02:08:08.670Z,24.52
2019-02-18T02:10:16.151Z,23.00
2019-02-18T02:12:22.310Z,22.58
2019-02-18T02:14:28.501Z,25.55
2019-02-18T02:16:34.740Z,23.05
2019-02-18T02:18:41.041Z,22.80
2019-02-18T02:20:47.256Z,23.95
2019-02-18T02:22:53.527Z,24.80
2019-02-18T02:24:59.684Z,22.90
2019-02-18T02:27:05.872Z,22.35
2019-02-18T02:29:12.170Z,22.37
2019-02-18T02:31:18.446Z,23.20
2019-02-18T02:33:26.317Z,22.98
2019-02-18T02:35:32.590Z,22.65
2019-02-18T02:37:39.017Z,24.40
2019-02-18T02:39:45.273Z,23.73
2019-02-18T02:41:51.504Z,23.52
2019-02-18T02:43:57.799Z,23.47
2019-02-18T02:46:04.070Z,23.07
2019-02-18T02:48:10.225Z,23.45
2019-02-18T02:50:16.587Z,24.12
2019-02-18T02:52:22.989Z,23.32
2019-02-18T02:54:29.366Z,23.55
2019-02-18T02:56:37.316Z,23.70
2019-02-18T02:58:43.675Z,24.35
2019-02-18T03:00:49.904Z,24.85
2019-02-18T03:02:56.082Z,23.52
2019-02-18T03:05:02.471Z,24.40
2019-02-18T03:07:08.707Z,23.67
2019-02-18T03:09:14.942Z,24.18
2019-02-18T03:11:21.249Z,23.47
2019-02-18T03:13:27.589Z,22.50
2019-02-18T03:15:33.895Z,24.12
2019-02-18T03:17:40.221Z,23.32
2019-02-18T03:19:46.380Z,23.92
2019-02-18T03:21:52.540Z,24.05
2019-02-18T03:23:58.803Z,23.75
2019-02-18T03:26:04.969Z,23.85
2019-02-18T03:28:28.024Z,23.95
2019-02-18T03:30:41.860Z,24.35
2019-02-18T03:32:48.415Z,24.12
2019-02-18T03:34:55.637Z,24.23
2019-02-18T03:37:01.971Z,23.38
2019-02-18T03:39:08.129Z,24.50
2019-02-18T03:41:14.278Z,23.05
2019-02-18T03:43:20.571Z,21.62
2019-02-18T03:45:26.657Z,24.00
2019-02-18T03:47:33.856Z,23.62
2019-02-18T03:49:40.047Z,21.23
2019-02-18T03:51:46.214Z,20.52
2019-02-18T03:53:52.479Z,22.17
2019-02-18T03:55:58.605Z,23.12
2019-02-18T03:58:04.899Z,22.35
2019-02-18T04:00:12.674Z,22.15
2019-02-18T04:02:19.006Z,22.25
2019-02-18T04:04:25.173Z,21.52
2019-02-18T04:06:31.340Z,23.45
2019-02-18T04:08:42.815Z,23.55
2019-02-18T04:10:45.534Z,22.22
2019-02-18T04:12:51.747Z,22.62
2019-02-18T04:14:57.934Z,20.45
2019-02-18T04:17:04.019Z,20.68
2019-02-18T04:19:10.276Z,23.32
2019-02-18T04:21:16.536Z,22.20
2019-02-18T04:23:22.760Z,22.48
2019-02-18T04:25:29.078Z,25.85
2019-02-18T04:27:35.222Z,22.40
2019-02-18T04:29:41.565Z,22.52
2019-02-18T04:31:47.893Z,22.37
2019-02-18T04:33:54.205Z,21.42
2019-02-18T04:36:00.442Z,22.85
2019-02-18T04:38:06.675Z,23.73
2019-02-18T04:40:12.860Z,22.58
2019-02-18T04:42:19.025Z,23.98
2019-02-18T04:44:25.184Z,24.63
2019-02-18T04:46:31.366Z,23.38
2019-02-18T04:48:37.709Z,23.18
2019-02-18T04:50:43.868Z,23.98
2019-02-18T04:52:50.210Z,22.75
2019-02-18T04:54:56.370Z,24.23
2019-02-18T04:57:02.450Z,23.32
2019-02-18T04:59:08.642Z,20.82
2019-02-18T05:01:14.827Z,23.67
2019-02-18T05:03:21.066Z,22.58
2019-02-18T05:05:27.251Z,23.83
2019-02-18T05:07:33.494Z,23.65
2019-02-18T05:09:40.185Z,23.30
2019-02-18T05:11:46.525Z,22.87
2019-02-18T05:13:52.713Z,22.77
2019-02-18T05:15:58.891Z,23.22
2019-02-18T05:18:05.155Z,21.07
2019-02-18T05:20:11.310Z,22.55
2019-02-18T05:22:17.541Z,22.00
2019-02-18T05:24:23.738Z,22.17
2019-02-18T05:26:29.970Z,22.95
2019-02-18T05:28:36.166Z,22.52
2019-02-18T05:30:42.818Z,22.37
2019-02-18T05:32:48.993Z,22.40
2019-02-18T05:34:55.307Z,23.60
2019-02-18T05:37:01.569Z,24.30
2019-02-18T05:39:17.509Z,24.77
2019-02-18T05:41:16.159Z,22.80
2019-02-18T05:43:22.471Z,24.98
2019-02-18T05:45:28.640Z,24.18
2019-02-18T05:47:34.941Z,26.50
2019-02-18T05:49:41.132Z,24.60
2019-02-18T05:51:47.268Z,23.90
2019-02-18T05:53:53.410Z,22.95
2019-02-18T05:55:59.668Z,23.90
2019-02-18T05:58:05.848Z,28.70
2019-02-18T06:00:13.567Z,26.07
2019-02-18T06:02:21.409Z,24.90
2019-02-18T06:04:27.793Z,23.15
2019-02-18T06:06:33.954Z,24.12
2019-02-18T06:08:40.151Z,21.93
2019-02-18T06:10:46.305Z,23.45
2019-02-18T06:12:52.470Z,24.25
2019-02-18T06:14:58.740Z,23.62
2019-02-18T06:17:05.106Z,23.70
2019-02-18T06:19:11.407Z,24.92
2019-02-18T06:21:17.611Z,25.00
2019-02-18T06:23:23.766Z,23.87
2019-02-18T06:25:30.012Z,24.87
2019-02-18T06:27:36.193Z,26.35
2019-02-18T06:29:42.485Z,25.35
2019-02-18T06:31:48.725Z,27.58
2019-02-18T06:33:54.982Z,28.10
2019-02-18T06:36:01.281Z,29.67
2019-02-18T06:38:07.434Z,28.25
2019-02-18T06:40:13.707Z,29.27
2019-02-18T06:42:19.863Z,27.90
2019-02-18T06:44:27.733Z,33.08
2019-02-18T06:46:35.570Z,26.75
2019-02-18T06:48:43.388Z,27.40
2019-02-18T06:50:49.543Z,29.00
2019-02-18T06:52:56.012Z,28.55
2019-02-18T06:55:02.256Z,29.60
2019-02-18T06:57:19.315Z,27.87
2019-02-18T06:59:27.128Z,26.15
2019-02-18T07:01:41.051Z,27.67
2019-02-18T07:03:51.986Z,25.95
2019-02-18T07:05:59.933Z,26.07
2019-02-18T07:08:07.724Z,26.90
2019-02-18T07:10:15.587Z,28.38
2019-02-18T07:12:26.492Z,26.45
2019-02-18T07:14:32.790Z,25.45
2019-02-18T07:16:39.029Z,26.07
2019-02-18T07:18:45.344Z,34.05
2019-02-18T07:20:51.503Z,29.90
2019-02-18T07:22:57.733Z,29.85
2019-02-18T07:25:04.868Z,33.23
2019-02-18T07:27:11.117Z,30.70
2019-02-18T07:29:17.359Z,29.02
2019-02-18T07:31:24.615Z,27.67
2019-02-18T07:33:30.854Z,29.55
2019-02-18T07:35:37.164Z,27.52
2019-02-18T07:37:43.430Z,28.30
2019-02-18T07:39:49.594Z,27.02
2019-02-18T07:41:55.825Z,27.90
2019-02-18T07:44:02.013Z,26.48
2019-02-18T07:46:08.319Z,27.07
2019-02-18T07:48:14.489Z,25.80
2019-02-18T07:50:21.130Z,26.25
2019-02-18T07:52:27.520Z,40.20
2019-02-18T07:54:33.679Z,35.70
2019-02-18T07:56:39.865Z,35.08
2019-02-18T07:58:46.167Z,29.35
2019-02-18T08:00:52.338Z,30.82
2019-02-18T08:02:58.612Z,32.70
2019-02-18T08:05:05.884Z,31.60
2019-02-18T08:07:12.133Z,28.70
2019-02-18T08:09:18.447Z,26.57
2019-02-18T08:11:24.687Z,30.23
2019-02-18T08:13:30.985Z,30.50
2019-02-18T08:15:37.340Z,30.82
2019-02-18T08:17:43.560Z,28.32
2019-02-18T08:19:49.718Z,30.52
2019-02-18T08:21:55.977Z,29.00
2019-02-18T08:24:02.144Z,27.58
2019-02-18T08:26:08.856Z,27.65
2019-02-18T08:28:15.098Z,28.15
2019-02-18T08:30:21.408Z,33.33
2019-02-18T08:32:27.715Z,29.27
2019-02-18T08:34:33.895Z,29.95
2019-02-18T08:36:40.070Z,29.00
2019-02-18T08:38:46.308Z,34.60
2019-02-18T08:40:53.577Z,28.50
2019-02-18T08:42:59.836Z,29.65
2019-02-18T08:45:12.151Z,33.35
2019-02-18T08:47:18.358Z,31.57
2019-02-18T08:49:24.598Z,33.40
2019-02-18T08:51:30.765Z,28.42
2019-02-18T08:53:37.031Z,28.57
2019-02-18T08:55:43.265Z,23.02
2019-02-18T08:57:49.570Z,21.35
2019-02-18T08:59:56.363Z,21.27
2019-02-18T09:02:02.664Z,21.48
2019-02-18T09:04:08.898Z,23.77
2019-02-18T09:06:15.238Z,22.02
2019-02-18T09:08:21.466Z,22.73
2019-02-18T09:10:33.671Z,19.80
2019-02-18T09:12:35.762Z,19.10
2019-02-18T09:14:41.998Z,20.92
2019-02-18T09:16:48.157Z,19.87
2019-02-18T09:18:55.441Z,18.45
2019-02-18T09:21:01.677Z,21.05
2019-02-18T09:23:15.548Z,19.45
2019-02-18T09:25:26.445Z,20.02
2019-02-18T09:27:33.490Z,18.23
2019-02-18T09:29:39.660Z,18.37
2019-02-18T09:31:46.049Z,17.70
2019-02-18T09:33:52.400Z,17.67
2019-02-18T09:35:58.578Z,18.35
2019-02-18T09:38:04.858Z,16.82
2019-02-18T09:40:12.171Z,18.15
2019-02-18T09:42:18.328Z,17.87
2019-02-18T09:44:24.582Z,21.17
2019-02-18T09:46:30.841Z,20.45
2019-02-18T09:48:37.091Z,19.50
2019-02-18T09:50:43.384Z,20.23
2019-02-18T09:52:49.617Z,20.08
2019-02-18T09:54:55.832Z,21.57
2019-02-18T09:57:02.110Z,20.15
2019-02-18T09:59:08.330Z,17.87
2019-02-18T10:01:14.492Z,18.30
2019-02-18T10:03:31.046Z,18.52
2019-02-18T10:05:28.886Z,19.70
2019-02-18T10:07:35.123Z,19.40
2019-02-18T10:09:41.392Z,17.67
2019-02-18T10:11:47.627Z,18.57
2019-02-18T10:13:53.797Z,17.85
2019-02-18T10:15:59.999Z,15.05
2019-02-18T10:18:06.160Z,16.23
2019-02-18T10:20:13.876Z,16.90
2019-02-18T10:22:20.157Z,15.32
2019-02-18T10:24:26.319Z,16.32
2019-02-18T10:26:32.476Z,14.58
2019-02-18T10:28:38.809Z,14.80
2019-02-18T10:30:45.140Z,14.73
2019-02-18T10:32:51.297Z,13.83
2019-02-18T10:34:57.672Z,15.53
2019-02-18T10:37:03.900Z,14.93
2019-02-18T10:39:10.070Z,14.33
2019-02-18T10:41:19.220Z,14.90
2019-02-18T10:43:32.212Z,18.45
2019-02-18T10:45:32.549Z,15.65
2019-02-18T10:47:38.823Z,13.00
2019-02-18T10:49:44.912Z,12.95
2019-02-18T10:51:51.173Z,12.73
2019-02-18T10:53:57.433Z,12.30
2019-02-18T10:56:03.952Z,11.70
2019-02-18T10:58:10.178Z,11.65
2019-02-18T11:00:17.647Z,11.53
2019-02-18T11:02:23.942Z,12.03
2019-02-18T11:04:30.257Z,12.70
2019-02-18T11:06:36.521Z,13.98
2019-02-18T11:08:42.960Z,13.83
2019-02-18T11:10:49.188Z,13.08
2019-02-18T11:12:55.374Z,12.65
2019-02-18T11:15:01.615Z,13.08
2019-02-18T11:17:08.924Z,12.10
2019-02-18T11:19:17.513Z,12.35
2019-02-18T11:21:23.047Z,12.70
2019-02-18T11:23:29.289Z,12.20
2019-02-18T11:25:35.481Z,13.22
2019-02-18T11:27:42.935Z,11.75
2019-02-18T11:29:49.247Z,11.60
2019-02-18T11:31:55.427Z,10.58
2019-02-18T11:34:01.665Z,10.43
2019-02-18T11:36:08.121Z,10.78
2019-02-18T11:38:14.430Z,13.05
2019-02-18T11:40:20.734Z,13.00
2019-02-18T11:42:27.483Z,12.75
2019-02-18T11:44:33.747Z,12.43
2019-02-18T11:46:39.972Z,11.60
2019-02-18T11:48:46.143Z,12.30
2019-02-18T11:50:52.338Z,12.60
2019-02-18T11:52:58.572Z,10.28
2019-02-18T11:55:08.404Z,11.38
2019-02-18T11:57:14.656Z,10.45
2019-02-18T11:59:24.370Z,12.73
2019-02-18T12:01:29.036Z,11.08
2019-02-18T12:03:35.363Z,11.28
2019-02-18T12:05:41.598Z,12.33
2019-02-18T12:07:47.767Z,30.57
2019-02-18T12:09:55.061Z,12.80
2019-02-18T12:12:01.225Z,11.93
2019-02-18T12:14:07.520Z,12.40
2019-02-18T12:16:13.712Z,10.88
2019-02-18T12:18:19.873Z,11.93
2019-02-18T12:20:26.395Z,13.40
2019-02-18T12:22:32.650Z,11.78
2019-02-18T12:24:39.254Z,14.43
2019-02-18T12:26:46.575Z,12.53
2019-02-18T12:28:52.766Z,13.53
2019-02-18T12:30:58.992Z,12.20
2019-02-18T12:33:05.498Z,12.30
2019-02-18T12:35:11.753Z,12.73
2019-02-18T12:37:18.024Z,12.88
2019-02-18T12:39:24.266Z,12.47
2019-02-18T12:41:30.448Z,36.85
2019-02-18T12:43:36.687Z,14.25
2019-02-18T12:45:42.855Z,12.05
2019-02-18T12:47:50.243Z,10.18
2019-02-18T12:49:56.532Z,10.68
2019-02-18T12:52:02.769Z,10.88
2019-02-18T12:54:09.096Z,10.60
2019-02-18T12:56:15.484Z,11.10
2019-02-18T12:58:22.159Z,9.45
2019-02-18T13:00:28.554Z,11.53
2019-02-18T13:02:43.684Z,10.88
2019-02-18T13:04:42.585Z,10.82
2019-02-18T13:06:49.103Z,11.50
2019-02-18T13:08:55.486Z,11.18
2019-02-18T13:11:02.855Z,11.50
2019-02-18T13:13:09.211Z,11.20
2019-02-18T13:15:19.090Z,12.80
2019-02-18T13:17:25.400Z,12.63
2019-02-18T13:19:31.595Z,10.15
2019-02-18T13:21:37.906Z,10.08
2019-02-18T13:23:44.076Z,11.00
2019-02-18T13:25:50.329Z,11.93
2019-02-18T13:27:56.598Z,12.15
2019-02-18T13:30:02.833Z,11.38
2019-02-18T13:32:09.228Z,13.58
2019-02-18T13:34:15.535Z,10.82
2019-02-18T13:36:21.769Z,10.00
2019-02-18T13:38:28.108Z,10.75
2019-02-18T13:40:34.291Z,11.00
2019-02-18T13:42:40.528Z,10.43
2019-02-18T13:44:46.791Z,11.15
2019-02-18T13:46:53.035Z,14.55
2019-02-18T13:48:59.198Z,11.95
2019-02-18T13:51:05.624Z,11.30
2019-02-18T13:53:11.926Z,10.25
2019-02-18T13:55:18.297Z,9.38
2019-02-18T13:57:24.693Z,10.43
2019-02-18T13:59:30.934Z,10.28
2019-02-18T14:01:38.348Z,9.28
2019-02-18T14:03:44.723Z,9.28
2019-02-18T14:05:50.882Z,9.20
2019-02-18T14:07:57.118Z,9.45
2019-02-18T14:10:03.464Z,11.20
2019-02-18T14:12:15.953Z,9.68
2019-02-18T14:14:17.884Z,9.80
2019-02-18T14:16:24.070Z,9.83
2019-02-18T14:18:30.250Z,10.13
2019-02-18T14:20:36.637Z,9.73
2019-02-18T14:22:42.848Z,9.40
2019-02-18T14:24:49.467Z,10.30
2019-02-18T14:26:55.782Z,11.33
2019-02-18T14:29:02.044Z,10.58
2019-02-18T14:31:08.333Z,11.08
2019-02-18T14:33:14.581Z,11.18
2019-02-18T14:35:20.919Z,10.72
2019-02-18T14:37:27.599Z,10.88
2019-02-18T14:39:33.843Z,11.20
2019-02-18T14:41:40.102Z,12.55
2019-02-18T14:43:46.269Z,12.30
2019-02-18T14:45:52.423Z,13.43
2019-02-18T14:47:58.770Z,13.62
2019-02-18T14:50:08.216Z,12.75
2019-02-18T14:52:14.592Z,13.65
2019-02-18T14:54:20.836Z,12.82
2019-02-18T14:56:26.943Z,12.93
2019-02-18T14:58:33.115Z,13.53
2019-02-18T15:00:39.386Z,11.53
2019-02-18T15:02:45.837Z,13.45
2019-02-18T15:04:53.516Z,13.05
2019-02-18T15:06:59.718Z,13.03
2019-02-18T15:09:06.536Z,13.90
2019-02-18T15:11:13.726Z,13.53
2019-02-18T15:13:20.010Z,12.85
2019-02-18T15:15:26.247Z,14.03
2019-02-18T15:17:32.496Z,12.90
2019-02-18T15:19:40.948Z,13.68
2019-02-18T15:21:47.193Z,14.20
2019-02-18T15:23:53.414Z,14.75
2019-02-18T15:25:59.684Z,12.55
2019-02-18T15:28:05.907Z,15.00
2019-02-18T15:30:16.006Z,14.98
2019-02-18T15:32:23.507Z,15.00
2019-02-18T15:34:30.736Z,15.45
2019-02-18T15:36:36.978Z,15.32
2019-02-18T15:38:43.158Z,16.73
2019-02-18T15:40:49.470Z,16.45
2019-02-18T15:42:55.967Z,17.30
2019-02-18T15:45:02.289Z,16.55
2019-02-18T15:47:09.744Z,17.75
2019-02-18T15:49:16.029Z,20.12
2019-02-18T15:51:22.303Z,23.25
2019-02-18T15:53:29.461Z,19.73
2019-02-18T15:55:35.797Z,19.55
2019-02-18T15:57:42.124Z,23.45
2019-02-18T15:59:48.424Z,22.05
2019-02-18T16:01:54.923Z,20.55
2019-02-18T16:04:01.384Z,21.87
2019-02-18T16:06:07.613Z,21.05
2019-02-18T16:08:13.923Z,21.73
2019-02-18T16:10:20.179Z,21.50
2019-02-18T16:12:26.513Z,21.93
2019-02-18T16:14:32.820Z,20.80
2019-02-18T16:16:39.153Z,21.48
2019-02-18T16:18:45.430Z,22.50
2019-02-18T16:20:52.051Z,23.02
2019-02-18T16:22:58.368Z,23.00
2019-02-18T16:25:07.214Z,22.55
2019-02-18T16:27:13.401Z,25.00
2019-02-18T16:29:19.572Z,25.27
2019-02-18T16:31:26.522Z,22.37
2019-02-18T16:33:32.863Z,25.15
2019-02-18T16:35:39.163Z,27.62
2019-02-18T16:37:47.125Z,28.23
2019-02-18T16:39:54.536Z,26.77
2019-02-18T16:42:02.365Z,25.17
2019-02-18T16:44:08.586Z,28.42
2019-02-18T16:46:15.993Z,28.02
2019-02-18T16:48:22.757Z,28.17
2019-02-18T16:50:29.127Z,29.50
2019-02-18T16:52:35.494Z,29.63
2019-02-18T16:54:42.100Z,31.57
2019-02-18T16:56:48.330Z,31.12
2019-02-18T16:58:54.708Z,26.55
2019-02-18T17:01:02.255Z,33.35
2019-02-18T17:03:08.491Z,36.17
2019-02-18T17:05:14.775Z,36.88
2019-02-18T17:07:21.287Z,34.75
2019-02-18T17:09:27.453Z,35.63
2019-02-18T17:11:33.820Z,32.70
2019-02-18T17:13:40.165Z,33.28
2019-02-18T17:15:46.459Z,33.15
2019-02-18T17:17:52.822Z,35.00
2019-02-18T17:19:59.084Z,33.63
2019-02-18T17:22:05.245Z,32.10
2019-02-18T17:24:13.062Z,32.70
2019-02-18T17:26:19.469Z,32.85
2019-02-18T17:28:25.758Z,31.00
2019-02-18T17:30:32.227Z,29.20
2019-02-18T17:32:38.475Z,27.25
2019-02-18T17:34:44.859Z,28.38
2019-02-18T17:36:51.174Z,27.75
2019-02-18T17:38:59.309Z,28.50
2019-02-18T17:41:08.429Z,29.30
2019-02-18T17:43:16.601Z,30.65
2019-02-18T17:45:22.897Z,27.30
2019-02-18T17:47:29.183Z,28.83
2019-02-18T17:49:35.470Z,30.65
2019-02-18T17:51:41.875Z,29.07
2019-02-18T17:53:50.375Z,26.10
2019-02-18T17:55:56.596Z,26.52
2019-02-18T17:58:04.095Z,26.30
2019-02-18T18:00:14.937Z,24.98
2019-02-18T18:02:21.127Z,26.30
2019-02-18T18:04:27.369Z,24.72
2019-02-18T18:06:35.373Z,23.52
2019-02-18T18:08:41.604Z,24.60
2019-02-18T18:10:47.995Z,21.85
2019-02-18T18:12:54.563Z,24.45
2019-02-18T18:15:00.865Z,23.12
2019-02-18T18:17:07.778Z,24.87
2019-02-18T18:19:14.082Z,24.10
2019-02-18T18:21:20.338Z,23.52
2019-02-18T18:23:26.557Z,23.20
2019-02-18T18:25:34.030Z,25.77
2019-02-18T18:27:40.397Z,25.08
2019-02-18T18:29:46.713Z,26.42
2019-02-18T18:31:53.083Z,23.70
2019-02-18T18:33:59.522Z,28.95
2019-02-18T18:36:09.154Z,27.10
2019-02-18T18:38:17.009Z,27.22
2019-02-18T18:40:24.348Z,29.00
2019-02-18T18:42:30.706Z,28.00
2019-02-18T18:44:38.642Z,26.85
2019-02-18T18:46:45.008Z,28.57
2019-02-18T18:48:51.442Z,27.73
2019-02-18T18:50:57.819Z,27.48
2019-02-18T18:53:05.116Z,28.52
2019-02-18T18:55:11.490Z,31.02
2019-02-18T18:57:19.418Z,28.60
2019-02-18T18:59:25.639Z,29.15
2019-02-18T19:01:32.359Z,27.90
2019-02-18T19:03:38.648Z,31.50
2019-02-18T19:05:45.091Z,30.92
2019-02-18T19:07:51.501Z,28.02
2019-02-18T19:09:57.747Z,27.35
2019-02-18T19:12:08.525Z,30.37
2019-02-18T19:14:14.919Z,28.73
2019-02-18T19:16:21.551Z,29.15
2019-02-18T19:18:29.824Z,29.20
2019-02-18T19:20:36.182Z,29.15
2019-02-18T19:22:42.494Z,29.20
2019-02-18T19:24:48.728Z,32.70
2019-02-18T19:26:55.047Z,28.85
2019-02-18T19:29:02.888Z,32.90
2019-02-18T19:31:09.187Z,30.35
2019-02-18T19:33:15.523Z,32.73
2019-02-18T19:35:21.910Z,31.52
2019-02-18T19:37:28.138Z,28.35
2019-02-18T19:39:34.467Z,30.55
2019-02-18T19:41:40.793Z,30.43
2019-02-18T19:43:50.356Z,34.78
2019-02-18T19:45:55.160Z,32.63
2019-02-18T19:48:01.595Z,30.20
2019-02-18T19:50:08.598Z,30.95
2019-02-18T19:52:14.976Z,28.25
2019-02-18T19:54:21.132Z,30.80
2019-02-18T19:56:27.918Z,34.13
2019-02-18T19:58:34.317Z,29.77
2019-02-18T20:00:40.690Z,30.37
2019-02-18T20:02:47.055Z,29.80
2019-02-18T20:04:53.324Z,32.17
2019-02-18T20:06:59.611Z,31.12
2019-02-18T20:09:09.415Z,31.35
2019-02-18T20:11:15.908Z,29.55
2019-02-18T20:13:22.211Z,29.57
2019-02-18T20:15:28.466Z,30.92
2019-02-18T20:17:34.935Z,31.68
2019-02-18T20:19:41.302Z,31.10
2019-02-18T20:21:47.667Z,31.48
2019-02-18T20:23:56.793Z,30.57
2019-02-18T20:28:08.387Z,29.80
2019-02-18T20:30:19.363Z,29.92
2019-02-18T20:32:25.600Z,29.90
2019-02-18T20:34:33.348Z,30.50
2019-02-18T20:36:39.872Z,29.98
2019-02-18T20:38:46.182Z,32.65
2019-02-18T20:40:52.464Z,29.87
2019-02-18T20:42:58.857Z,29.63
2019-02-18T20:45:08.808Z,29.25
2019-02-18T20:47:15.176Z,29.87
2019-02-18T20:49:21.712Z,28.87
2019-02-18T20:51:30.222Z,28.25
2019-02-18T20:53:39.605Z,26.57
2019-02-18T20:55:47.491Z,26.17
2019-02-18T20:57:53.856Z,26.55
2019-02-18T21:00:01.693Z,25.75
2019-02-18T21:02:09.108Z,25.72
2019-02-18T21:04:17.029Z,24.85
2019-02-18T21:06:25.217Z,25.65
2019-02-18T21:08:33.077Z,25.85
2019-02-18T21:10:39.449Z,25.35
2019-02-18T21:12:45.750Z,26.15
2019-02-18T21:14:52.104Z,25.12
2019-02-18T21:16:58.531Z,24.77
2019-02-18T21:19:04.769Z,25.43
2019-02-18T21:21:13.921Z,24.12
2019-02-18T21:25:25.660Z,24.72
2019-02-18T21:27:32.027Z,26.50
2019-02-18T21:29:38.243Z,24.32
2019-02-18T21:31:44.483Z,26.48
2019-02-18T21:33:50.957Z,26.00
2019-02-18T21:35:59.137Z,28.17
2019-02-18T21:38:05.425Z,22.07
2019-02-18T21:40:12.885Z,25.17
2019-02-18T21:42:19.191Z,26.15
2019-02-18T21:44:26.230Z,25.48
2019-02-18T21:46:33.595Z,24.45
2019-02-18T21:48:39.751Z,24.98
2019-02-18T21:50:46.096Z,26.73
2019-02-18T21:52:52.423Z,26.57
2019-02-18T21:54:58.627Z,25.32
2019-02-18T21:57:05.002Z,22.52
2019-02-18T21:59:11.659Z,24.80
2019-02-18T22:01:18.634Z,26.82
2019-02-18T22:03:24.909Z,23.85
2019-02-18T22:05:31.101Z,26.90
2019-02-18T22:07:37.437Z,26.02
2019-02-18T22:09:43.806Z,25.25
2019-02-18T22:11:50.328Z,25.90
2019-02-18T22:13:56.550Z,27.20
2019-02-18T22:16:02.937Z,23.55
2019-02-18T22:18:09.239Z,25.48
2019-02-18T22:20:15.402Z,26.90
2019-02-18T22:22:21.763Z,26.20
2019-02-18T22:24:28.536Z,30.52
2019-02-18T22:26:34.709Z,27.17
2019-02-18T22:28:40.977Z,27.37
2019-02-18T22:30:47.382Z,28.27
2019-02-18T22:32:53.807Z,26.65
2019-02-18T22:35:00.301Z,26.93
2019-02-18T22:37:06.679Z,30.43
2019-02-18T22:39:12.897Z,26.40
2019-02-18T22:41:19.202Z,29.15
2019-02-18T22:43:25.605Z,24.57
2019-02-18T22:45:32.037Z,26.97
2019-02-18T22:47:38.683Z,29.82
2019-02-18T22:49:45.098Z,24.77
2019-02-18T22:51:52.328Z,28.75
2019-02-18T22:53:58.697Z,31.62
2019-02-18T22:56:04.915Z,29.05
2019-02-18T22:58:11.228Z,28.23
2019-02-18T23:00:53.622Z,28.90
2019-02-18T23:03:01.371Z,31.87
2019-02-18T23:05:07.747Z,31.23
2019-02-18T23:07:14.032Z,30.00
2019-02-18T23:09:20.346Z,29.57
2019-02-18T23:11:26.577Z,29.52
2019-02-18T23:13:32.938Z,28.73
2019-02-18T23:15:39.261Z,29.50
2019-02-18T23:17:45.418Z,29.57
2019-02-18T23:19:51.962Z,29.35
2019-02-18T23:21:58.232Z,30.65
2019-02-18T23:24:04.394Z,31.10
2019-02-18T23:26:10.647Z,32.33
2019-02-18T23:28:16.843Z,31.25
2019-02-18T23:30:22.996Z,29.87
2019-02-18T23:32:29.606Z,29.82
2019-02-18T23:34:35.867Z,31.77
2019-02-18T23:36:42.031Z,30.00
2019-02-18T23:38:48.266Z,29.87
2019-02-18T23:40:55.426Z,30.48
2019-02-18T23:43:01.689Z,29.82
2019-02-18T23:45:08.036Z,32.93
2019-02-18T23:47:14.222Z,30.08
2019-02-18T23:49:20.446Z,30.43
2019-02-18T23:51:26.873Z,29.30
2019-02-18T23:53:33.068Z,29.37
2019-02-18T23:55:39.324Z,30.50
2019-02-18T23:57:45.504Z,28.25
2019-02-18T23:59:51.721Z,30.40
